sensor_id;sensor_type;location;lat;lon;timestamp;temperature;humidity
64855;DHT22;51321;50.428;8.378;2022-08-25T00:00:23;19.00;80.50
64855;DHT22;51321;50.428;8.378;2022-08-25T00:02:44;18.90;80.30
64855;DHT22;51321;50.428;8.378;2022-08-25T00:05:08;18.90;81.20
64855;DHT22;51321;50.428;8.378;2022-08-25T00:07:30;18.90;80.80
64855;DHT22;51321;50.428;8.378;2022-08-25T00:09:52;18.80;81.00
64855;DHT22;51321;50.428;8.378;2022-08-25T00:12:13;18.70;81.50
64855;DHT22;51321;50.428;8.378;2022-08-25T00:14:36;18.70;81.80
64855;DHT22;51321;50.428;8.378;2022-08-25T00:16:58;18.70;81.90
64855;DHT22;51321;50.428;8.378;2022-08-25T00:19:23;18.60;82.30
64855;DHT22;51321;50.428;8.378;2022-08-25T00:21:47;18.40;84.00
64855;DHT22;51321;50.428;8.378;2022-08-25T00:24:10;18.40;84.70
64855;DHT22;51321;50.428;8.378;2022-08-25T00:26:32;18.40;85.00
64855;DHT22;51321;50.428;8.378;2022-08-25T00:28:54;18.40;85.20
64855;DHT22;51321;50.428;8.378;2022-08-25T00:31:19;18.40;84.70
64855;DHT22;51321;50.428;8.378;2022-08-25T00:33:42;18.40;84.40
64855;DHT22;51321;50.428;8.378;2022-08-25T00:36:03;18.30;85.00
64855;DHT22;51321;50.428;8.378;2022-08-25T00:38:27;18.30;85.70
64855;DHT22;51321;50.428;8.378;2022-08-25T00:40:49;18.20;86.00
64855;DHT22;51321;50.428;8.378;2022-08-25T00:43:25;18.20;86.10
64855;DHT22;51321;50.428;8.378;2022-08-25T00:45:47;18.10;87.10
64855;DHT22;51321;50.428;8.378;2022-08-25T00:48:09;18.10;86.60
64855;DHT22;51321;50.428;8.378;2022-08-25T00:50:32;18.00;87.30
64855;DHT22;51321;50.428;8.378;2022-08-25T00:52:59;18.00;87.90
64855;DHT22;51321;50.428;8.378;2022-08-25T00:55:26;18.00;88.20
64855;DHT22;51321;50.428;8.378;2022-08-25T00:57:53;18.00;88.50
64855;DHT22;51321;50.428;8.378;2022-08-25T01:00:20;17.90;88.20
64855;DHT22;51321;50.428;8.378;2022-08-25T01:02:42;17.80;89.20
64855;DHT22;51321;50.428;8.378;2022-08-25T01:05:04;17.80;89.50
64855;DHT22;51321;50.428;8.378;2022-08-25T01:07:26;17.90;89.50
64855;DHT22;51321;50.428;8.378;2022-08-25T01:09:50;17.90;89.40
64855;DHT22;51321;50.428;8.378;2022-08-25T01:12:14;17.90;89.50
64855;DHT22;51321;50.428;8.378;2022-08-25T01:14:36;17.90;89.60
64855;DHT22;51321;50.428;8.378;2022-08-25T01:16:59;17.80;88.30
64855;DHT22;51321;50.428;8.378;2022-08-25T01:19:20;17.80;88.70
64855;DHT22;51321;50.428;8.378;2022-08-25T01:21:45;17.70;89.80
64855;DHT22;51321;50.428;8.378;2022-08-25T01:24:11;17.70;90.20
64855;DHT22;51321;50.428;8.378;2022-08-25T01:26:35;17.60;90.40
64855;DHT22;51321;50.428;8.378;2022-08-25T01:28:57;17.60;90.50
64855;DHT22;51321;50.428;8.378;2022-08-25T01:31:46;17.60;90.60
64855;DHT22;51321;50.428;8.378;2022-08-25T01:34:10;17.50;90.80
64855;DHT22;51321;50.428;8.378;2022-08-25T01:36:40;17.30;91.10
64855;DHT22;51321;50.428;8.378;2022-08-25T01:39:04;17.30;91.50
64855;DHT22;51321;50.428;8.378;2022-08-25T01:41:45;17.30;91.60
64855;DHT22;51321;50.428;8.378;2022-08-25T01:44:11;17.30;91.50
64855;DHT22;51321;50.428;8.378;2022-08-25T01:46:33;17.30;91.50
64855;DHT22;51321;50.428;8.378;2022-08-25T01:48:55;17.30;91.50
64855;DHT22;51321;50.428;8.378;2022-08-25T01:51:19;17.30;91.50
64855;DHT22;51321;50.428;8.378;2022-08-25T01:53:44;17.30;91.40
64855;DHT22;51321;50.428;8.378;2022-08-25T01:56:12;17.20;91.70
64855;DHT22;51321;50.428;8.378;2022-08-25T01:58:36;17.20;91.80
64855;DHT22;51321;50.428;8.378;2022-08-25T02:01:00;17.20;91.90
64855;DHT22;51321;50.428;8.378;2022-08-25T02:03:23;17.20;92.00
64855;DHT22;51321;50.428;8.378;2022-08-25T02:05:45;17.20;91.90
64855;DHT22;51321;50.428;8.378;2022-08-25T02:08:07;17.20;92.00
64855;DHT22;51321;50.428;8.378;2022-08-25T02:10:29;17.20;92.00
64855;DHT22;51321;50.428;8.378;2022-08-25T02:12:52;17.10;91.80
64855;DHT22;51321;50.428;8.378;2022-08-25T02:15:14;17.00;92.20
64855;DHT22;51321;50.428;8.378;2022-08-25T02:17:36;16.90;92.40
64855;DHT22;51321;50.428;8.378;2022-08-25T02:19:58;17.00;92.40
64855;DHT22;51321;50.428;8.378;2022-08-25T02:22:19;17.00;92.10
64855;DHT22;51321;50.428;8.378;2022-08-25T02:24:41;17.00;92.10
64855;DHT22;51321;50.428;8.378;2022-08-25T02:27:03;16.90;92.10
64855;DHT22;51321;50.428;8.378;2022-08-25T02:29:27;16.90;92.40
64855;DHT22;51321;50.428;8.378;2022-08-25T02:31:49;16.90;92.40
64855;DHT22;51321;50.428;8.378;2022-08-25T02:34:11;16.90;92.40
64855;DHT22;51321;50.428;8.378;2022-08-25T02:36:35;16.90;92.30
64855;DHT22;51321;50.428;8.378;2022-08-25T02:38:57;16.90;92.20
64855;DHT22;51321;50.428;8.378;2022-08-25T02:41:22;16.70;92.50
64855;DHT22;51321;50.428;8.378;2022-08-25T02:43:45;16.50;93.10
64855;DHT22;51321;50.428;8.378;2022-08-25T02:46:10;16.50;93.40
64855;DHT22;51321;50.428;8.378;2022-08-25T02:48:32;16.50;93.50
64855;DHT22;51321;50.428;8.378;2022-08-25T02:50:54;16.50;93.60
64855;DHT22;51321;50.428;8.378;2022-08-25T02:53:20;16.50;93.60
64855;DHT22;51321;50.428;8.378;2022-08-25T02:55:42;16.50;93.70
64855;DHT22;51321;50.428;8.378;2022-08-25T02:58:04;16.40;94.10
64855;DHT22;51321;50.428;8.378;2022-08-25T03:00:26;16.40;94.30
64855;DHT22;51321;50.428;8.378;2022-08-25T03:02:49;16.40;94.10
64855;DHT22;51321;50.428;8.378;2022-08-25T03:05:12;16.50;94.10
64855;DHT22;51321;50.428;8.378;2022-08-25T03:07:34;16.30;94.40
64855;DHT22;51321;50.428;8.378;2022-08-25T03:09:57;16.20;94.50
64855;DHT22;51321;50.428;8.378;2022-08-25T03:12:19;16.30;94.50
64855;DHT22;51321;50.428;8.378;2022-08-25T03:14:41;16.30;94.50
64855;DHT22;51321;50.428;8.378;2022-08-25T03:17:03;16.20;94.50
64855;DHT22;51321;50.428;8.378;2022-08-25T03:19:27;16.20;94.70
64855;DHT22;51321;50.428;8.378;2022-08-25T03:21:48;16.20;94.60
64855;DHT22;51321;50.428;8.378;2022-08-25T03:24:11;16.20;94.40
64855;DHT22;51321;50.428;8.378;2022-08-25T03:26:33;16.20;94.60
64855;DHT22;51321;50.428;8.378;2022-08-25T03:29:13;16.10;94.90
64855;DHT22;51321;50.428;8.378;2022-08-25T03:31:35;16.10;95.00
64855;DHT22;51321;50.428;8.378;2022-08-25T03:33:58;16.00;95.10
64855;DHT22;51321;50.428;8.378;2022-08-25T03:36:21;16.10;95.00
64855;DHT22;51321;50.428;8.378;2022-08-25T03:38:43;16.00;95.10
64855;DHT22;51321;50.428;8.378;2022-08-25T03:41:11;15.90;95.30
64855;DHT22;51321;50.428;8.378;2022-08-25T03:43:42;15.80;95.40
64855;DHT22;51321;50.428;8.378;2022-08-25T03:46:04;15.80;95.60
64855;DHT22;51321;50.428;8.378;2022-08-25T03:48:26;15.80;95.80
64855;DHT22;51321;50.428;8.378;2022-08-25T03:50:50;15.70;96.00
64855;DHT22;51321;50.428;8.378;2022-08-25T03:53:15;15.70;95.90
64855;DHT22;51321;50.428;8.378;2022-08-25T03:55:37;15.70;95.90
64855;DHT22;51321;50.428;8.378;2022-08-25T03:58:00;15.70;95.90
64855;DHT22;51321;50.428;8.378;2022-08-25T04:00:22;15.80;95.80
64855;DHT22;51321;50.428;8.378;2022-08-25T04:02:44;15.70;95.90
64855;DHT22;51321;50.428;8.378;2022-08-25T04:05:07;15.70;96.10
64855;DHT22;51321;50.428;8.378;2022-08-25T04:07:29;15.60;96.40
64855;DHT22;51321;50.428;8.378;2022-08-25T04:09:54;15.50;96.60
64855;DHT22;51321;50.428;8.378;2022-08-25T04:12:16;15.50;96.60
64855;DHT22;51321;50.428;8.378;2022-08-25T04:14:37;15.40;96.70
64855;DHT22;51321;50.428;8.378;2022-08-25T04:17:00;15.50;96.70
64855;DHT22;51321;50.428;8.378;2022-08-25T04:19:22;15.40;96.90
64855;DHT22;51321;50.428;8.378;2022-08-25T04:21:44;15.50;96.70
64855;DHT22;51321;50.428;8.378;2022-08-25T04:24:07;15.50;96.50
64855;DHT22;51321;50.428;8.378;2022-08-25T04:26:33;15.50;96.60
64855;DHT22;51321;50.428;8.378;2022-08-25T04:28:57;15.50;96.50
64855;DHT22;51321;50.428;8.378;2022-08-25T04:31:20;15.60;96.40
64855;DHT22;51321;50.428;8.378;2022-08-25T04:33:43;15.60;96.10
64855;DHT22;51321;50.428;8.378;2022-08-25T04:36:07;15.70;96.10
64855;DHT22;51321;50.428;8.378;2022-08-25T04:38:31;15.70;96.00
64855;DHT22;51321;50.428;8.378;2022-08-25T04:40:56;15.70;96.00
64855;DHT22;51321;50.428;8.378;2022-08-25T04:43:19;15.80;96.00
64855;DHT22;51321;50.428;8.378;2022-08-25T04:45:41;15.60;96.40
64855;DHT22;51321;50.428;8.378;2022-08-25T04:48:04;15.60;96.40
64855;DHT22;51321;50.428;8.378;2022-08-25T04:50:26;15.50;96.60
64855;DHT22;51321;50.428;8.378;2022-08-25T04:52:48;15.40;96.80
64855;DHT22;51321;50.428;8.378;2022-08-25T04:55:09;15.40;97.00
64855;DHT22;51321;50.428;8.378;2022-08-25T04:57:31;15.40;96.90
64855;DHT22;51321;50.428;8.378;2022-08-25T04:59:54;15.30;97.00
64855;DHT22;51321;50.428;8.378;2022-08-25T05:02:16;15.40;97.00
64855;DHT22;51321;50.428;8.378;2022-08-25T05:04:39;15.40;97.30
64855;DHT22;51321;50.428;8.378;2022-08-25T05:07:01;15.40;97.00
64855;DHT22;51321;50.428;8.378;2022-08-25T05:09:23;15.50;97.10
64855;DHT22;51321;50.428;8.378;2022-08-25T05:11:45;15.50;96.90
64855;DHT22;51321;50.428;8.378;2022-08-25T05:14:06;15.50;97.10
64855;DHT22;51321;50.428;8.378;2022-08-25T05:16:34;15.40;97.50
64855;DHT22;51321;50.428;8.378;2022-08-25T05:18:56;15.40;97.60
64855;DHT22;51321;50.428;8.378;2022-08-25T05:21:21;15.40;97.50
64855;DHT22;51321;50.428;8.378;2022-08-25T05:23:44;15.50;97.30
64855;DHT22;51321;50.428;8.378;2022-08-25T05:26:08;15.50;97.40
64855;DHT22;51321;50.428;8.378;2022-08-25T05:28:31;15.60;97.30
64855;DHT22;51321;50.428;8.378;2022-08-25T05:30:57;15.60;97.70
64855;DHT22;51321;50.428;8.378;2022-08-25T05:33:20;15.70;97.60
64855;DHT22;51321;50.428;8.378;2022-08-25T05:35:42;15.80;97.60
64855;DHT22;51321;50.428;8.378;2022-08-25T05:38:05;15.80;97.60
64855;DHT22;51321;50.428;8.378;2022-08-25T05:40:26;15.90;97.50
64855;DHT22;51321;50.428;8.378;2022-08-25T05:42:49;15.90;97.50
64855;DHT22;51321;50.428;8.378;2022-08-25T05:45:11;16.00;97.70
64855;DHT22;51321;50.428;8.378;2022-08-25T05:47:33;15.90;97.60
64855;DHT22;51321;50.428;8.378;2022-08-25T05:49:56;16.10;97.70
64855;DHT22;51321;50.428;8.378;2022-08-25T05:52:18;16.10;97.40
64855;DHT22;51321;50.428;8.378;2022-08-25T05:54:40;16.10;97.30
64855;DHT22;51321;50.428;8.378;2022-08-25T05:57:02;16.20;97.40
64855;DHT22;51321;50.428;8.378;2022-08-25T05:59:24;16.30;97.30
64855;DHT22;51321;50.428;8.378;2022-08-25T06:01:45;16.60;97.00
64855;DHT22;51321;50.428;8.378;2022-08-25T06:04:25;16.90;96.70
64855;DHT22;51321;50.428;8.378;2022-08-25T06:06:48;17.10;96.10
64855;DHT22;51321;50.428;8.378;2022-08-25T06:09:14;17.10;96.40
64855;DHT22;51321;50.428;8.378;2022-08-25T06:11:36;17.00;96.60
64855;DHT22;51321;50.428;8.378;2022-08-25T06:13:59;17.20;96.40
64855;DHT22;51321;50.428;8.378;2022-08-25T06:16:21;17.30;95.90
64855;DHT22;51321;50.428;8.378;2022-08-25T06:18:42;17.50;95.50
64855;DHT22;51321;50.428;8.378;2022-08-25T06:21:09;17.70;95.50
64855;DHT22;51321;50.428;8.378;2022-08-25T06:23:33;17.70;95.20
64855;DHT22;51321;50.428;8.378;2022-08-25T06:25:55;17.90;95.20
64855;DHT22;51321;50.428;8.378;2022-08-25T06:28:17;18.20;94.80
64855;DHT22;51321;50.428;8.378;2022-08-25T06:30:39;18.50;94.30
64855;DHT22;51321;50.428;8.378;2022-08-25T06:33:00;18.70;94.30
64855;DHT22;51321;50.428;8.378;2022-08-25T06:35:22;18.80;93.80
64855;DHT22;51321;50.428;8.378;2022-08-25T06:37:45;18.70;94.00
64855;DHT22;51321;50.428;8.378;2022-08-25T06:40:09;18.60;94.10
64855;DHT22;51321;50.428;8.378;2022-08-25T06:42:32;18.80;94.20
64855;DHT22;51321;50.428;8.378;2022-08-25T06:44:54;18.90;93.80
64855;DHT22;51321;50.428;8.378;2022-08-25T06:47:16;19.10;93.80
64855;DHT22;51321;50.428;8.378;2022-08-25T06:49:38;19.10;93.70
64855;DHT22;51321;50.428;8.378;2022-08-25T06:52:00;19.30;93.80
64855;DHT22;51321;50.428;8.378;2022-08-25T06:54:22;19.50;93.50
64855;DHT22;51321;50.428;8.378;2022-08-25T06:56:45;19.50;93.50
64855;DHT22;51321;50.428;8.378;2022-08-25T06:59:08;19.90;93.20
64855;DHT22;51321;50.428;8.378;2022-08-25T07:01:30;20.10;92.70
64855;DHT22;51321;50.428;8.378;2022-08-25T07:03:54;20.00;92.80
64855;DHT22;51321;50.428;8.378;2022-08-25T07:06:17;20.30;92.70
64855;DHT22;51321;50.428;8.378;2022-08-25T07:08:39;20.60;92.20
64855;DHT22;51321;50.428;8.378;2022-08-25T07:11:04;20.50;92.20
64855;DHT22;51321;50.428;8.378;2022-08-25T07:13:27;20.70;92.00
64855;DHT22;51321;50.428;8.378;2022-08-25T07:15:53;20.90;91.70
64855;DHT22;51321;50.428;8.378;2022-08-25T07:18:15;21.10;91.70
64855;DHT22;51321;50.428;8.378;2022-08-25T07:20:37;21.30;91.20
64855;DHT22;51321;50.428;8.378;2022-08-25T07:23:00;21.40;91.10
64855;DHT22;51321;50.428;8.378;2022-08-25T07:25:21;21.60;91.00
64855;DHT22;51321;50.428;8.378;2022-08-25T07:27:43;21.60;90.80
64855;DHT22;51321;50.428;8.378;2022-08-25T07:30:08;21.80;90.80
64855;DHT22;51321;50.428;8.378;2022-08-25T07:32:30;21.90;90.70
64855;DHT22;51321;50.428;8.378;2022-08-25T07:34:52;22.20;90.50
64855;DHT22;51321;50.428;8.378;2022-08-25T07:37:31;22.40;90.40
64855;DHT22;51321;50.428;8.378;2022-08-25T07:39:53;22.50;90.00
64855;DHT22;51321;50.428;8.378;2022-08-25T07:42:15;22.60;90.10
64855;DHT22;51321;50.428;8.378;2022-08-25T07:44:37;22.80;89.90
64855;DHT22;51321;50.428;8.378;2022-08-25T07:47:00;22.90;89.50
64855;DHT22;51321;50.428;8.378;2022-08-25T07:49:23;23.10;89.50
64855;DHT22;51321;50.428;8.378;2022-08-25T07:51:46;23.10;88.70
64855;DHT22;51321;50.428;8.378;2022-08-25T07:54:07;23.30;88.90
64855;DHT22;51321;50.428;8.378;2022-08-25T07:56:29;23.40;88.70
64855;DHT22;51321;50.428;8.378;2022-08-25T07:58:51;23.50;89.00
64855;DHT22;51321;50.428;8.378;2022-08-25T08:01:13;23.70;87.90
64855;DHT22;51321;50.428;8.378;2022-08-25T08:03:36;23.80;87.80
64855;DHT22;51321;50.428;8.378;2022-08-25T08:05:59;24.00;87.50
64855;DHT22;51321;50.428;8.378;2022-08-25T08:08:21;24.20;87.10
64855;DHT22;51321;50.428;8.378;2022-08-25T08:10:42;24.40;86.40
64855;DHT22;51321;50.428;8.378;2022-08-25T08:13:04;24.50;87.10
64855;DHT22;51321;50.428;8.378;2022-08-25T08:15:26;24.70;87.10
64855;DHT22;51321;50.428;8.378;2022-08-25T08:17:48;24.90;86.30
64855;DHT22;51321;50.428;8.378;2022-08-25T08:20:12;25.10;85.50
64855;DHT22;51321;50.428;8.378;2022-08-25T08:22:34;25.20;85.30
64855;DHT22;51321;50.428;8.378;2022-08-25T08:24:56;25.10;85.00
64855;DHT22;51321;50.428;8.378;2022-08-25T08:27:18;25.30;86.20
64855;DHT22;51321;50.428;8.378;2022-08-25T08:29:40;25.50;85.20
64855;DHT22;51321;50.428;8.378;2022-08-25T08:58:29;26.50;79.70
64855;DHT22;51321;50.428;8.378;2022-08-25T09:03:33;26.90;77.90
64855;DHT22;51321;50.428;8.378;2022-08-25T09:05:58;27.20;77.60
64855;DHT22;51321;50.428;8.378;2022-08-25T09:08:21;27.20;78.60
64855;DHT22;51321;50.428;8.378;2022-08-25T09:10:53;27.10;78.00
64855;DHT22;51321;50.428;8.378;2022-08-25T09:13:29;27.40;74.60
64855;DHT22;51321;50.428;8.378;2022-08-25T09:15:59;27.50;75.10
64855;DHT22;51321;50.428;8.378;2022-08-25T09:18:49;27.70;74.30
64855;DHT22;51321;50.428;8.378;2022-08-25T09:21:17;27.90;72.90
64855;DHT22;51321;50.428;8.378;2022-08-25T09:23:51;27.90;72.30
64855;DHT22;51321;50.428;8.378;2022-08-25T09:26:24;28.10;72.40
64855;DHT22;51321;50.428;8.378;2022-08-25T09:28:51;28.20;72.30
64855;DHT22;51321;50.428;8.378;2022-08-25T09:31:20;28.10;71.10
64855;DHT22;51321;50.428;8.378;2022-08-25T09:33:42;27.90;71.50
64855;DHT22;51321;50.428;8.378;2022-08-25T09:36:04;28.10;71.20
64855;DHT22;51321;50.428;8.378;2022-08-25T09:38:27;28.30;71.20
64855;DHT22;51321;50.428;8.378;2022-08-25T09:40:54;28.00;69.80
64855;DHT22;51321;50.428;8.378;2022-08-25T09:43:22;27.80;70.90
64855;DHT22;51321;50.428;8.378;2022-08-25T09:45:48;27.90;71.60
64855;DHT22;51321;50.428;8.378;2022-08-25T09:48:21;28.10;70.00
64855;DHT22;51321;50.428;8.378;2022-08-25T09:50:44;28.20;70.10
64855;DHT22;51321;50.428;8.378;2022-08-25T09:53:10;28.40;69.80
64855;DHT22;51321;50.428;8.378;2022-08-25T09:55:33;28.70;69.20
64855;DHT22;51321;50.428;8.378;2022-08-25T09:57:56;28.60;68.50
64855;DHT22;51321;50.428;8.378;2022-08-25T10:00:22;28.60;67.40
64855;DHT22;51321;50.428;8.378;2022-08-25T10:03:05;28.80;66.10
64855;DHT22;51321;50.428;8.378;2022-08-25T10:05:27;28.80;66.20
64855;DHT22;51321;50.428;8.378;2022-08-25T10:07:57;28.90;66.40
64855;DHT22;51321;50.428;8.378;2022-08-25T10:10:26;28.80;66.10
64855;DHT22;51321;50.428;8.378;2022-08-25T10:12:48;28.90;66.30
64855;DHT22;51321;50.428;8.378;2022-08-25T10:15:20;28.70;66.10
64855;DHT22;51321;50.428;8.378;2022-08-25T10:17:43;28.60;66.90
64855;DHT22;51321;50.428;8.378;2022-08-25T10:20:16;28.40;66.30
64855;DHT22;51321;50.428;8.378;2022-08-25T10:22:41;28.50;65.60
64855;DHT22;51321;50.428;8.378;2022-08-25T10:25:04;28.70;65.80
64855;DHT22;51321;50.428;8.378;2022-08-25T10:27:35;29.10;64.80
64855;DHT22;51321;50.428;8.378;2022-08-25T10:30:10;29.00;64.20
64855;DHT22;51321;50.428;8.378;2022-08-25T10:32:51;29.10;63.50
64855;DHT22;51321;50.428;8.378;2022-08-25T10:35:18;29.20;64.30
64855;DHT22;51321;50.428;8.378;2022-08-25T10:37:48;29.20;64.20
64855;DHT22;51321;50.428;8.378;2022-08-25T10:40:20;29.00;65.50
64855;DHT22;51321;50.428;8.378;2022-08-25T10:42:51;29.10;65.50
64855;DHT22;51321;50.428;8.378;2022-08-25T10:45:16;29.50;64.70
64855;DHT22;51321;50.428;8.378;2022-08-25T10:48:17;29.90;63.60
64855;DHT22;51321;50.428;8.378;2022-08-25T10:50:47;29.70;64.00
64855;DHT22;51321;50.428;8.378;2022-08-25T10:53:22;29.60;64.20
64855;DHT22;51321;50.428;8.378;2022-08-25T10:55:56;29.50;64.10
64855;DHT22;51321;50.428;8.378;2022-08-25T10:58:25;29.10;64.70
64855;DHT22;51321;50.428;8.378;2022-08-25T11:00:56;28.80;64.30
64855;DHT22;51321;50.428;8.378;2022-08-25T11:03:36;29.10;64.20
64855;DHT22;51321;50.428;8.378;2022-08-25T11:06:08;28.90;63.30
64855;DHT22;51321;50.428;8.378;2022-08-25T11:08:34;29.10;64.50
64855;DHT22;51321;50.428;8.378;2022-08-25T11:11:00;29.50;61.40
64855;DHT22;51321;50.428;8.378;2022-08-25T11:13:37;29.50;62.50
64855;DHT22;51321;50.428;8.378;2022-08-25T11:16:02;29.40;63.70
64855;DHT22;51321;50.428;8.378;2022-08-25T11:18:27;28.80;64.20
64855;DHT22;51321;50.428;8.378;2022-08-25T11:21:00;28.90;63.80
64855;DHT22;51321;50.428;8.378;2022-08-25T11:23:27;28.90;63.20
64855;DHT22;51321;50.428;8.378;2022-08-25T11:25:53;28.90;63.00
64855;DHT22;51321;50.428;8.378;2022-08-25T11:28:22;29.20;63.50
64855;DHT22;51321;50.428;8.378;2022-08-25T11:30:47;29.20;63.80
64855;DHT22;51321;50.428;8.378;2022-08-25T11:33:12;29.20;63.80
64855;DHT22;51321;50.428;8.378;2022-08-25T11:35:37;29.20;64.20
64855;DHT22;51321;50.428;8.378;2022-08-25T11:38:10;29.50;63.70
64855;DHT22;51321;50.428;8.378;2022-08-25T11:40:54;29.30;63.20
64855;DHT22;51321;50.428;8.378;2022-08-25T11:43:44;29.40;63.20
64855;DHT22;51321;50.428;8.378;2022-08-25T11:46:26;28.90;64.00
64855;DHT22;51321;50.428;8.378;2022-08-25T11:48:59;28.70;65.40
64855;DHT22;51321;50.428;8.378;2022-08-25T11:51:30;28.60;65.30
64855;DHT22;51321;50.428;8.378;2022-08-25T11:54:09;28.60;65.80
64855;DHT22;51321;50.428;8.378;2022-08-25T11:56:38;28.60;65.30
64855;DHT22;51321;50.428;8.378;2022-08-25T11:59:01;28.40;65.00
64855;DHT22;51321;50.428;8.378;2022-08-25T12:04:35;28.60;64.30
64855;DHT22;51321;50.428;8.378;2022-08-25T12:07:17;29.30;62.90
64855;DHT22;51321;50.428;8.378;2022-08-25T12:10:08;29.90;61.40
64855;DHT22;51321;50.428;8.378;2022-08-25T12:12:36;29.60;61.70
64855;DHT22;51321;50.428;8.378;2022-08-25T12:15:13;29.20;62.80
64855;DHT22;51321;50.428;8.378;2022-08-25T12:17:40;28.80;63.60
64855;DHT22;51321;50.428;8.378;2022-08-25T12:20:03;28.70;63.70
64855;DHT22;51321;50.428;8.378;2022-08-25T12:22:53;28.70;63.90
64855;DHT22;51321;50.428;8.378;2022-08-25T12:25:44;29.00;62.70
64855;DHT22;51321;50.428;8.378;2022-08-25T12:28:20;29.40;62.20
64855;DHT22;51321;50.428;8.378;2022-08-25T12:30:51;29.50;62.30
64855;DHT22;51321;50.428;8.378;2022-08-25T12:33:22;29.60;62.40
64855;DHT22;51321;50.428;8.378;2022-08-25T12:35:54;29.50;62.70
64855;DHT22;51321;50.428;8.378;2022-08-25T12:38:27;29.30;62.80
64855;DHT22;51321;50.428;8.378;2022-08-25T12:41:01;29.30;63.30
64855;DHT22;51321;50.428;8.378;2022-08-25T12:43:27;29.10;63.20
64855;DHT22;51321;50.428;8.378;2022-08-25T12:45:51;28.80;62.90
64855;DHT22;51321;50.428;8.378;2022-08-25T12:51:19;28.60;63.30
64855;DHT22;51321;50.428;8.378;2022-08-25T12:53:42;28.80;63.70
64855;DHT22;51321;50.428;8.378;2022-08-25T12:56:13;29.30;63.10
64855;DHT22;51321;50.428;8.378;2022-08-25T12:58:48;29.40;62.50
64855;DHT22;51321;50.428;8.378;2022-08-25T13:01:18;29.30;60.30
64855;DHT22;51321;50.428;8.378;2022-08-25T13:03:56;29.30;60.70
64855;DHT22;51321;50.428;8.378;2022-08-25T13:06:35;29.20;61.30
64855;DHT22;51321;50.428;8.378;2022-08-25T13:12:15;30.00;61.00
64855;DHT22;51321;50.428;8.378;2022-08-25T13:14:41;30.00;60.40
64855;DHT22;51321;50.428;8.378;2022-08-25T13:17:03;29.90;60.60
64855;DHT22;51321;50.428;8.378;2022-08-25T13:19:26;29.70;60.60
64855;DHT22;51321;50.428;8.378;2022-08-25T13:21:49;29.60;61.10
64855;DHT22;51321;50.428;8.378;2022-08-25T13:24:17;29.30;61.90
64855;DHT22;51321;50.428;8.378;2022-08-25T13:26:41;29.20;62.40
64855;DHT22;51321;50.428;8.378;2022-08-25T13:29:12;29.20;62.20
64855;DHT22;51321;50.428;8.378;2022-08-25T13:31:39;29.10;62.00
64855;DHT22;51321;50.428;8.378;2022-08-25T13:34:19;29.10;63.10
64855;DHT22;51321;50.428;8.378;2022-08-25T13:36:43;29.10;62.70
64855;DHT22;51321;50.428;8.378;2022-08-25T13:39:25;29.30;62.70
64855;DHT22;51321;50.428;8.378;2022-08-25T13:41:52;29.40;61.60
64855;DHT22;51321;50.428;8.378;2022-08-25T13:44:17;29.40;62.30
64855;DHT22;51321;50.428;8.378;2022-08-25T13:46:41;29.50;62.60
64855;DHT22;51321;50.428;8.378;2022-08-25T13:49:06;29.70;61.10
64855;DHT22;51321;50.428;8.378;2022-08-25T13:51:28;29.70;61.70
64855;DHT22;51321;50.428;8.378;2022-08-25T13:53:51;29.50;61.20
64855;DHT22;51321;50.428;8.378;2022-08-25T13:56:23;29.40;62.20
64855;DHT22;51321;50.428;8.378;2022-08-25T13:58:45;29.30;62.60
64855;DHT22;51321;50.428;8.378;2022-08-25T14:01:08;29.30;62.00
64855;DHT22;51321;50.428;8.378;2022-08-25T14:03:35;29.30;61.80
64855;DHT22;51321;50.428;8.378;2022-08-25T14:06:04;29.30;61.50
64855;DHT22;51321;50.428;8.378;2022-08-25T14:08:30;29.70;61.10
64855;DHT22;51321;50.428;8.378;2022-08-25T14:11:04;30.00;61.30
64855;DHT22;51321;50.428;8.378;2022-08-25T14:13:29;30.00;60.50
64855;DHT22;51321;50.428;8.378;2022-08-25T14:15:52;30.00;60.50
64855;DHT22;51321;50.428;8.378;2022-08-25T14:18:18;29.90;60.80
64855;DHT22;51321;50.428;8.378;2022-08-25T14:20:47;29.80;60.90
64855;DHT22;51321;50.428;8.378;2022-08-25T14:23:12;29.80;61.10
64855;DHT22;51321;50.428;8.378;2022-08-25T14:25:35;29.80;60.50
64855;DHT22;51321;50.428;8.378;2022-08-25T14:27:59;29.70;60.80
64855;DHT22;51321;50.428;8.378;2022-08-25T14:30:22;29.70;60.10
64855;DHT22;51321;50.428;8.378;2022-08-25T14:32:44;29.90;60.10
64855;DHT22;51321;50.428;8.378;2022-08-25T14:35:06;30.10;60.00
64855;DHT22;51321;50.428;8.378;2022-08-25T14:37:30;30.10;59.70
64855;DHT22;51321;50.428;8.378;2022-08-25T14:39:52;30.20;58.80
64855;DHT22;51321;50.428;8.378;2022-08-25T14:42:14;30.40;58.60
64855;DHT22;51321;50.428;8.378;2022-08-25T14:44:36;30.50;58.40
64855;DHT22;51321;50.428;8.378;2022-08-25T14:46:59;30.40;58.20
64855;DHT22;51321;50.428;8.378;2022-08-25T14:49:23;30.60;58.10
64855;DHT22;51321;50.428;8.378;2022-08-25T14:51:47;30.70;57.70
64855;DHT22;51321;50.428;8.378;2022-08-25T14:54:12;30.50;57.10
64855;DHT22;51321;50.428;8.378;2022-08-25T14:56:38;30.30;58.10
64855;DHT22;51321;50.428;8.378;2022-08-25T14:59:00;30.40;58.00
64855;DHT22;51321;50.428;8.378;2022-08-25T15:01:23;30.50;57.90
64855;DHT22;51321;50.428;8.378;2022-08-25T15:03:47;30.90;58.10
64855;DHT22;51321;50.428;8.378;2022-08-25T15:06:13;30.90;58.20
64855;DHT22;51321;50.428;8.378;2022-08-25T15:08:35;31.00;58.70
64855;DHT22;51321;50.428;8.378;2022-08-25T15:11:16;30.80;57.90
64855;DHT22;51321;50.428;8.378;2022-08-25T15:13:37;30.20;58.30
64855;DHT22;51321;50.428;8.378;2022-08-25T15:15:59;30.00;59.80
64855;DHT22;51321;50.428;8.378;2022-08-25T15:18:21;29.70;59.60
64855;DHT22;51321;50.428;8.378;2022-08-25T15:20:43;29.50;60.10
64855;DHT22;51321;50.428;8.378;2022-08-25T15:23:05;29.40;60.30
64855;DHT22;51321;50.428;8.378;2022-08-25T15:25:28;29.50;60.30
64855;DHT22;51321;50.428;8.378;2022-08-25T15:27:51;29.50;59.90
64855;DHT22;51321;50.428;8.378;2022-08-25T15:30:14;29.40;59.90
64855;DHT22;51321;50.428;8.378;2022-08-25T15:32:36;29.50;59.70
64855;DHT22;51321;50.428;8.378;2022-08-25T15:34:58;29.80;60.00
64855;DHT22;51321;50.428;8.378;2022-08-25T15:37:20;30.50;58.10
64855;DHT22;51321;50.428;8.378;2022-08-25T15:39:43;31.30;56.80
64855;DHT22;51321;50.428;8.378;2022-08-25T15:42:05;31.70;55.80
64855;DHT22;51321;50.428;8.378;2022-08-25T15:44:28;31.50;55.50
64855;DHT22;51321;50.428;8.378;2022-08-25T15:46:50;31.20;56.10
64855;DHT22;51321;50.428;8.378;2022-08-25T15:49:12;30.80;56.40
64855;DHT22;51321;50.428;8.378;2022-08-25T15:51:34;30.50;57.00
64855;DHT22;51321;50.428;8.378;2022-08-25T15:53:57;30.40;57.90
64855;DHT22;51321;50.428;8.378;2022-08-25T15:56:19;30.20;57.30